Time;durP1;ratioP1;P1;durP2;ratioP2;P2;SDS_P1;SDS_P2;PMS_P1;PMS_P2;Temp;Humidity;BMP_temperature;BMP_pressure;BME280_temperature;BME280_humidity;BME280_pressure;Samples;Min_cycle;Max_cycle;Signal;HPM_P1;HPM_P2
2021/04/15 07:00:22;;;;;;;1.80;1.40;;;;;;;;;;10623795;28;20028;-87
2021/04/15 07:11:34;;;;;;;6.10;1.50;;;;;;;;;;10592508;28;20481;-87
2021/04/15 07:22:33;;;;;;;3.83;1.70;;;;;;;;;;10593323;28;20031;-87
2021/04/15 07:50:43;;;;;;;3.97;2.40;;;;;;;;;;10590481;28;20039;-86
2021/04/15 07:56:04;;;;;;;4.60;2.65;;;;;;;;;;10575112;28;20239;-88
2021/04/15 08:01:19;;;;;;;3.50;1.73;;;;;;;;;;10592996;28;20031;-86
2021/04/15 08:06:40;;;;;;;5.03;1.77;;;;;;;;;;10574846;28;20073;-86
2021/04/15 08:17:30;;;;;;;5.25;2.47;;;;;;;;;;10609350;28;20024;-85
2021/04/15 08:22:56;;;;;;;3.53;1.90;;;;;;;;;;10596337;28;20027;-86
2021/04/15 08:28:13;;;;;;;;;;;;;;;;;;10607341;28;20055;-86
2021/04/15 09:24:57;;;;;;;3.97;1.70;;;;;;;;;;10590134;28;20504;-88
2021/04/15 09:42:07;;;;;;;3.42;1.63;;;;;;;;;;10590194;28;20019;-87
2021/04/15 09:47:48;;;;;;;3.75;1.05;;;;;;;;;;10569948;28;20054;-87
2021/04/15 09:53:06;;;;;;;2.15;1.13;;;;;;;;;;10590388;28;20448;-85
2021/04/15 09:58:26;;;;;;;3.13;1.55;;;;;;;;;;10574841;28;20484;-89
2021/04/15 10:09:48;;;;;;;3.13;1.27;;;;;;;;;;10592367;28;20027;-88
2021/04/15 10:15:27;;;;;;;1.40;0.90;;;;;;;;;;10575179;28;20138;-91
2021/04/15 10:20:50;;;;;;;3.77;1.30;;;;;;;;;;10581827;28;20066;-88
2021/04/15 10:26:26;;;;;;;2.17;1.00;;;;;;;;;;10575884;28;20266;-88
2021/04/15 10:49:09;;;;;;;1.98;1.10;;;;;;;;;;10511877;28;20115;-89
2021/04/15 11:00:30;;;;;;;2.67;1.30;;;;;;;;;;10595345;27;20485;-87
2021/04/15 11:17:22;;;;;;;2.78;1.67;;;;;;;;;;10622740;27;20555;-88
2021/04/15 11:22:50;;;;;;;3.80;1.87;;;;;;;;;;10583728;28;20137;-88
2021/04/15 11:33:31;;;;;;;;;;;;;;;;;;10570605;28;20028;-88
2021/04/15 11:56:11;;;;;;;4.32;2.15;;;;;;;;;;10592238;28;20036;-88
2021/04/15 12:01:31;;;;;;;7.35;3.90;;;;;;;;;;10586719;28;20043;-89
2021/04/15 12:07:13;;;;;;;4.43;2.90;;;;;;;;;;10564913;28;20020;-88
2021/04/15 12:12:19;;;;;;;4.25;2.75;;;;;;;;;;10588296;22;20043;-85
2021/04/15 12:17:27;;;;;;;3.55;2.10;;;;;;;;;;10590241;28;20426;-85
2021/04/15 12:22:47;;;;;;;3.90;2.10;;;;;;;;;;10588201;28;20378;-84
2021/04/15 12:27:52;;;;;;;2.97;2.00;;;;;;;;;;10587128;28;20039;-85
2021/04/15 12:33:04;;;;;;;4.10;2.35;;;;;;;;;;10586698;28;20062;-85
2021/04/15 12:38:08;;;;;;;3.67;2.08;;;;;;;;;;10586113;28;20031;-85
2021/04/15 12:43:17;;;;;;;2.10;1.75;;;;;;;;;;10586588;28;20042;-86
2021/04/15 12:48:33;;;;;;;3.97;2.30;;;;;;;;;;10596202;28;20035;-85
2021/04/15 12:53:36;;;;;;;3.30;1.75;;;;;;;;;;10587943;28;20040;-85
2021/04/15 12:58:43;;;;;;;6.32;1.70;;;;;;;;;;10587714;28;20082;-86
2021/04/15 13:03:46;;;;;;;2.83;2.10;;;;;;;;;;10583069;28;20039;-85
2021/04/15 13:08:52;;;;;;;3.55;1.50;;;;;;;;;;10583217;28;20042;-84
2021/04/15 13:13:53;;;;;;;3.45;1.80;;;;;;;;;;10585607;28;20397;-84
2021/04/15 13:18:54;;;;;;;3.13;1.30;;;;;;;;;;10585750;28;20130;-84
2021/04/15 13:23:57;;;;;;;2.38;1.45;;;;;;;;;;10587566;28;20028;-84
2021/04/15 13:28:59;;;;;;;1.30;1.15;;;;;;;;;;10586892;28;20029;-85
2021/04/15 13:34:05;;;;;;;2.72;1.33;;;;;;;;;;10584318;28;20118;-84
2021/04/15 13:39:24;;;;;;;4.10;2.53;;;;;;;;;;10583156;28;20076;-84
2021/04/15 13:44:44;;;;;;;5.33;2.27;;;;;;;;;;10583143;28;20042;-84
2021/04/15 13:49:48;;;;;;;2.88;1.85;;;;;;;;;;10583807;28;20193;-84
2021/04/15 13:54:52;;;;;;;2.92;1.60;;;;;;;;;;10584054;28;20057;-84
2021/04/15 13:59:55;;;;;;;2.50;1.88;;;;;;;;;;10584734;28;20085;-85
2021/04/15 14:05:01;;;;;;;3.00;1.38;;;;;;;;;;10583127;28;20031;-85
2021/04/15 14:10:05;;;;;;;3.72;2.10;;;;;;;;;;10583221;28;20049;-84
2021/04/15 14:15:19;;;;;;;2.72;1.55;;;;;;;;;;10587619;28;20039;-85
2021/04/15 14:20:32;;;;;;;2.20;1.50;;;;;;;;;;10591174;28;20032;-86
2021/04/15 14:25:36;;;;;;;3.95;1.75;;;;;;;;;;10589961;28;20039;-84
2021/04/15 14:30:37;;;;;;;1.90;1.55;;;;;;;;;;10590351;28;20101;-86
2021/04/15 14:35:39;;;;;;;4.72;1.85;;;;;;;;;;10589612;28;20047;-85
2021/04/15 14:40:42;;;;;;;3.90;1.60;;;;;;;;;;10594177;28;20063;-84
2021/04/15 14:45:43;;;;;;;2.15;1.50;;;;;;;;;;10590710;28;20039;-84
2021/04/15 14:50:44;;;;;;;2.63;1.63;;;;;;;;;;10592905;28;20071;-84
2021/04/15 14:56:05;;;;;;;2.53;1.30;;;;;;;;;;10591290;28;20124;-85
2021/04/15 15:01:11;;;;;;;2.25;1.13;;;;;;;;;;10594325;28;20059;-85
2021/04/15 15:06:12;;;;;;;4.10;1.90;;;;;;;;;;10589705;28;20027;-85
2021/04/15 15:11:25;;;;;;;;;;;;;;;;;;;;;
2021/04/15 15:16:30;;;;;;;6.55;5.07;;;;;;;;;;10599968;28;20023;-85
2021/04/15 15:21:50;;;;;;;2.92;1.35;;;;;;;;;;10592356;28;20034;-85
2021/04/15 15:26:55;;;;;;;2.53;1.40;;;;;;;;;;10597251;28;20032;-86
2021/04/15 15:32:13;;;;;;;4.75;2.17;;;;;;;;;;10595258;28;20050;-85
2021/04/15 15:37:22;;;;;;;2.75;1.80;;;;;;;;;;10590907;28;20042;-85
2021/04/15 15:42:42;;;;;;;4.57;1.63;;;;;;;;;;10597501;28;20063;-85
2021/04/15 15:47:56;;;;;;;;;;;;;;;;;;;;;
2021/04/15 15:53:09;;;;;;;;;;;;;;;;;;10595001;28;19936;-84
2021/04/15 15:58:12;;;;;;;2.50;1.20;;;;;;;;;;10592983;28;19968;-84
2021/04/15 16:03:53;;;;;;;;;;;;;;;;;;;;;
2021/04/15 16:09:11;;;;;;;3.35;2.45;;;;;;;;;;10511730;28;20039;-85
2021/04/15 16:14:32;;;;;;;3.83;1.35;;;;;;;;;;10596632;28;20046;-84
2021/04/15 16:19:33;;;;;;;5.05;1.67;;;;;;;;;;10599956;28;20095;-84
2021/04/15 16:24:37;;;;;;;2.17;1.20;;;;;;;;;;10599793;28;20484;-84
2021/04/15 16:29:49;;;;;;;2.90;2.03;;;;;;;;;;10602563;28;20369;-85
2021/04/15 16:34:50;;;;;;;3.22;1.95;;;;;;;;;;10597922;28;20040;-85
2021/04/15 16:39:55;;;;;;;4.32;2.90;;;;;;;;;;10598074;28;20024;-85
2021/04/15 16:44:59;;;;;;;3.50;2.40;;;;;;;;;;10596999;28;20035;-85
2021/04/15 16:50:00;;;;;;;3.88;2.33;;;;;;;;;;10598041;28;20085;-85
2021/04/15 16:55:01;;;;;;;2.63;1.70;;;;;;;;;;10597032;28;20031;-85
2021/04/15 17:00:09;;;;;;;2.63;1.80;;;;;;;;;;10599235;28;20031;-84
2021/04/15 17:05:10;;;;;;;2.28;1.45;;;;;;;;;;10601220;28;20035;-85
2021/04/15 17:10:15;;;;;;;3.53;1.83;;;;;;;;;;10599280;28;20416;-85
2021/04/15 17:15:28;;;;;;;3.25;1.90;;;;;;;;;;10597555;28;20039;-85
2021/04/15 17:20:29;;;;;;;3.75;2.40;;;;;;;;;;10601563;28;20027;-85
2021/04/15 17:25:30;;;;;;;4.50;3.03;;;;;;;;;;10594717;28;20032;-85
2021/04/15 17:30:32;;;;;;;4.97;2.28;;;;;;;;;;10591587;28;20036;-85
2021/04/15 17:35:36;;;;;;;3.50;2.40;;;;;;;;;;10598573;28;20066;-85
2021/04/15 17:40:39;;;;;;;4.00;2.30;;;;;;;;;;10599114;28;20042;-86
2021/04/15 17:45:41;;;;;;;3.03;2.20;;;;;;;;;;10593983;28;20042;-86
2021/04/15 17:50:46;;;;;;;3.40;2.28;;;;;;;;;;10601831;28;20047;-85
2021/04/15 17:55:50;;;;;;;2.47;1.45;;;;;;;;;;10596745;28;20126;-85
2021/04/15 18:00:51;;;;;;;3.20;2.15;;;;;;;;;;10596500;28;20051;-85
2021/04/15 18:05:55;;;;;;;3.55;2.72;;;;;;;;;;10592306;28;20111;-85
2021/04/15 18:10:56;;;;;;;3.80;2.50;;;;;;;;;;10597401;22;20552;-85
2021/04/15 18:15:58;;;;;;;3.03;1.92;;;;;;;;;;10533770;28;20047;-85
2021/04/15 18:21:00;;;;;;;3.15;1.85;;;;;;;;;;10554129;28;20032;-85
2021/04/15 18:26:01;;;;;;;3.13;1.55;;;;;;;;;;10554003;28;20050;-85
2021/04/15 18:31:04;;;;;;;3.20;1.92;;;;;;;;;;10547289;28;20047;-85
2021/04/15 18:36:05;;;;;;;4.18;1.65;;;;;;;;;;10535223;28;20028;-86
2021/04/15 18:41:12;;;;;;;3.13;2.60;;;;;;;;;;10531397;28;20082;-86
2021/04/15 18:46:13;;;;;;;4.05;2.72;;;;;;;;;;10548910;28;20033;-86
2021/04/15 18:51:14;;;;;;;3.35;2.15;;;;;;;;;;10549911;28;20040;-85
2021/04/15 18:56:15;;;;;;;4.72;2.05;;;;;;;;;;10534842;28;20032;-86
2021/04/15 19:01:16;;;;;;;3.42;1.77;;;;;;;;;;10535647;28;20089;-84
2021/04/15 19:06:17;;;;;;;2.88;1.95;;;;;;;;;;10560558;28;20032;-84
2021/04/15 19:11:18;;;;;;;2.42;2.00;;;;;;;;;;10560653;28;20097;-85
2021/04/15 19:16:20;;;;;;;3.45;2.30;;;;;;;;;;10556301;28;20505;-86
2021/04/15 19:21:22;;;;;;;2.53;2.10;;;;;;;;;;10558252;28;20043;-85
2021/04/15 19:26:23;;;;;;;2.47;1.50;;;;;;;;;;10561237;28;20036;-85
2021/04/15 19:31:28;;;;;;;2.53;2.00;;;;;;;;;;10569072;28;20036;-85
2021/04/15 19:36:30;;;;;;;2.55;1.83;;;;;;;;;;10572194;28;20036;-84
2021/04/15 19:41:32;;;;;;;2.30;1.65;;;;;;;;;;10579559;28;20095;-83
2021/04/15 19:46:33;;;;;;;2.83;1.65;;;;;;;;;;10583339;28;20055;-83
2021/04/15 19:51:34;;;;;;;2.40;1.83;;;;;;;;;;10577888;28;20051;-83
2021/04/15 19:56:35;;;;;;;3.40;2.10;;;;;;;;;;10570388;28;20036;-84
2021/04/15 20:01:39;;;;;;;2.95;1.80;;;;;;;;;;10569384;28;20031;-85
2021/04/15 20:06:40;;;;;;;3.03;2.30;;;;;;;;;;10580400;28;20059;-84
2021/04/15 20:11:42;;;;;;;2.35;1.73;;;;;;;;;;10579703;28;20055;-85
2021/04/15 20:16:43;;;;;;;2.58;1.88;;;;;;;;;;10577894;28;20036;-84
